Time;durP1;ratioP1;P1;durP2;ratioP2;P2;SDS_P1;SDS_P2;PMS_P1;PMS_P2;Temp;Humidity;BMP_temperature;BMP_pressure;BME280_temperature;BME280_humidity;BME280_pressure;Samples;Min_cycle;Max_cycle;Signal;HPM_P1;HPM_P2
2021/09/21 00:01:22;;;;;;;2.13;2.03;;;;;;;9.40;72.78;99370.90;1685183;83;21591;-67
2021/09/21 00:03:49;;;;;;;2.27;2.05;;;;;;;9.41;72.81;99375.21;1656787;84;21455;-68
2021/09/21 00:06:15;;;;;;;6.42;3.10;;;;;;;9.41;72.63;99373.05;1647935;85;21487;-67
2021/09/21 00:08:42;;;;;;;2.30;1.85;;;;;;;9.44;72.98;99379.03;1672615;83;21818;-68
2021/09/21 00:11:09;;;;;;;1.72;1.62;;;;;;;9.50;72.71;99384.48;1674399;83;21444;-67
2021/09/21 00:13:36;;;;;;;2.60;2.40;;;;;;;9.45;72.25;99378.09;1674654;83;20962;-68
2021/09/21 00:16:05;;;;;;;3.47;1.95;;;;;;;9.43;72.44;99379.94;1663047;83;21014;-67
2021/09/21 00:18:31;;;;;;;2.40;2.20;;;;;;;9.34;72.09;99375.95;1649107;85;21530;-67
2021/09/21 00:21:00;;;;;;;4.30;2.08;;;;;;;9.27;71.79;99383.67;1646935;85;22371;-68
2021/09/21 00:23:27;;;;;;;2.08;1.87;;;;;;;9.16;72.22;99384.11;1652097;85;21542;-67
2021/09/21 00:25:56;;;;;;;1.75;1.65;;;;;;;9.14;72.67;99373.30;1646981;85;21456;-67
2021/09/21 00:28:24;;;;;;;2.15;2.05;;;;;;;9.20;73.02;99378.28;1652754;85;21483;-67
2021/09/21 00:30:52;;;;;;;3.02;1.82;;;;;;;9.15;73.01;99376.30;1674720;85;21451;-67
2021/09/21 00:33:21;;;;;;;4.55;1.92;;;;;;;9.13;72.95;99380.75;1674442;84;21696;-67
2021/09/21 00:35:50;;;;;;;2.40;2.20;;;;;;;9.12;72.84;99383.84;1674433;83;21447;-66
2021/09/21 00:38:20;;;;;;;1.98;1.87;;;;;;;9.10;73.02;99386.14;1674778;84;21469;-67
2021/09/21 00:40:46;;;;;;;2.40;2.20;;;;;;;9.15;73.26;99381.11;1674118;83;21562;-67
2021/09/21 00:43:22;;;;;;;2.33;2.12;;;;;;;9.20;72.86;99387.92;1647285;85;21717;-67
2021/09/21 00:45:52;;;;;;;2.05;1.95;;;;;;;9.10;72.60;99387.45;1645745;86;21365;-67
2021/09/21 00:48:21;;;;;;;1.98;1.87;;;;;;;9.03;72.94;99388.62;1664862;84;21450;-66
2021/09/21 00:50:48;;;;;;;;;;;;;;;9.06;72.59;99380.60;1685212;83;21515;-66
2021/09/21 00:53:16;;;;;;;3.22;1.90;;;;;;;9.02;72.45;99389.52;1690626;83;20418;-67
2021/09/21 00:55:44;;;;;;;2.42;2.22;;;;;;;9.05;72.74;99386.78;1667057;84;21542;-67
2021/09/21 00:58:11;;;;;;;2.02;1.92;;;;;;;9.01;72.57;99385.20;1657979;86;22157;-66
2021/09/21 01:00:38;;;;;;;2.40;2.20;;;;;;;8.92;72.40;99387.27;1659710;84;21495;-67
2021/09/21 01:03:04;;;;;;;2.70;1.82;;;;;;;8.86;72.46;99386.67;1657973;86;21516;-67
2021/09/21 01:05:32;;;;;;;2.30;2.08;;;;;;;8.79;72.56;99386.05;1657983;84;21556;-67
2021/09/21 01:07:58;;;;;;;1.92;1.82;;;;;;;8.83;72.98;99390.25;1657916;84;21601;-67
2021/09/21 01:10:27;;;;;;;3.12;2.00;;;;;;;8.96;72.78;99396.70;1658840;84;21807;-67
2021/09/21 01:12:54;;;;;;;2.35;2.08;;;;;;;8.91;72.48;99389.94;1657999;84;20970;-66
2021/09/21 01:15:21;;;;;;;3.55;2.27;;;;;;;8.88;72.45;99396.64;1658176;86;21476;-66
2021/09/21 01:17:51;;;;;;;2.08;1.98;;;;;;;8.82;72.46;99402.98;1674788;83;21078;-67
2021/09/21 01:20:18;;;;;;;1.98;1.77;;;;;;;8.77;72.20;99403.14;1685958;84;21645;-66
2021/09/21 01:22:45;;;;;;;2.87;2.52;;;;;;;8.73;72.57;99405.95;1661950;84;22019;-66
2021/09/21 01:25:13;;;;;;;2.10;1.90;;;;;;;8.82;72.62;99399.05;1657929;84;21642;-67
2021/09/21 01:27:40;;;;;;;2.22;2.02;;;;;;;8.86;71.78;99404.56;1658510;86;21534;-67
2021/09/21 01:30:10;;;;;;;3.90;2.42;;;;;;;8.77;71.84;99408.38;1658188;85;21079;-67
2021/09/21 01:32:37;;;;;;;3.45;2.20;;;;;;;8.67;71.62;99408.83;1660175;84;21467;-65
2021/09/21 01:35:05;;;;;;;2.63;2.43;;;;;;;8.55;71.55;99415.37;1665457;84;21491;-66
2021/09/21 01:37:32;;;;;;;2.47;2.08;;;;;;;8.44;72.02;99414.48;1670609;84;21706;-66
2021/09/21 01:39:58;;;;;;;1.85;1.75;;;;;;;8.40;72.56;99415.48;1663368;85;21542;-67
2021/09/21 01:42:25;;;;;;;2.27;2.17;;;;;;;8.47;72.67;99417.44;1663636;84;21555;-66
2021/09/21 01:44:53;;;;;;;2.87;1.87;;;;;;;8.48;72.56;99419.16;1663527;85;21569;-66
2021/09/21 01:47:21;;;;;;;2.40;2.20;;;;;;;8.47;72.53;99420.05;1663783;84;22099;-66
2021/09/21 01:53:19;;;;;;;2.37;2.17;;;;;;;8.35;72.30;99414.80;1663182;84;21565;-66
2021/09/21 01:55:22;;;;;;;2.22;2.12;;;;;;;8.34;72.94;99418.31;1647158;84;21515;-67
2021/09/21 02:00:23;;;;;;;3.65;2.02;;;;;;;8.34;73.12;99415.26;1663417;85;22102;-66
2021/09/21 02:02:50;;;;;;;1.90;1.80;;;;;;;8.35;73.24;99415.64;1663235;85;21569;-67
2021/09/21 02:05:17;;;;;;;2.20;2.00;;;;;;;8.35;73.22;99415.64;1663430;85;21031;-67
2021/09/21 02:07:44;;;;;;;2.27;2.08;;;;;;;8.30;72.96;99414.10;1684591;84;21518;-66
2021/09/21 02:10:12;;;;;;;1.80;1.70;;;;;;;8.37;73.31;99418.20;1667985;84;21040;-67
2021/09/21 02:12:38;;;;;;;2.25;2.10;;;;;;;8.45;73.11;99420.11;1662921;84;21866;-66
2021/09/21 02:15:06;;;;;;;2.05;1.85;;;;;;;8.42;72.99;99418.05;1662579;85;21462;-66
2021/09/21 02:17:34;;;;;;;2.80;2.12;;;;;;;8.45;72.73;99417.95;1664303;84;21531;-65
2021/09/21 02:20:01;;;;;;;2.27;1.70;;;;;;;8.46;72.70;99415.28;1672427;84;21487;-64
2021/09/21 02:22:30;;;;;;;4.87;1.77;;;;;;;8.44;72.68;99418.84;1671071;84;21446;-64
2021/09/21 02:24:57;;;;;;;3.62;1.85;;;;;;;8.49;72.76;99417.77;1664785;84;21790;-64
2021/09/21 02:27:25;;;;;;;2.10;1.90;;;;;;;8.49;72.80;99418.23;1685665;84;21518;-64
2021/09/21 02:29:52;;;;;;;2.58;2.20;;;;;;;8.44;72.41;99416.23;1663632;85;21519;-65
2021/09/21 02:32:18;;;;;;;2.02;1.92;;;;;;;8.38;72.49;99418.16;1663534;85;21484;-65
2021/09/21 02:34:47;;;;;;;4.28;2.10;;;;;;;8.37;72.73;99418.20;1663208;84;21629;-65
2021/09/21 02:37:14;;;;;;;1.77;1.67;;;;;;;8.29;72.41;99422.89;1663348;84;21594;-66
2021/09/21 02:39:41;;;;;;;2.10;1.90;;;;;;;8.25;72.95;99424.77;1677852;84;21545;-65
2021/09/21 02:42:10;;;;;;;2.15;1.92;;;;;;;8.38;73.00;99424.70;1663014;84;21650;-64
2021/09/21 02:44:36;;;;;;;2.40;1.77;;;;;;;8.36;72.31;99431.77;1663646;84;21532;-64
2021/09/21 02:47:04;;;;;;;1.67;1.57;;;;;;;8.30;72.41;99427.20;1676801;84;21605;-66
2021/09/21 02:49:32;;;;;;;4.30;1.77;;;;;;;8.25;72.46;99431.31;1668311;84;21451;-62
2021/09/21 02:51:59;;;;;;;1.50;1.40;;;;;;;8.25;72.41;99431.31;1681413;84;21614;-64
2021/09/21 02:54:26;;;;;;;1.90;1.70;;;;;;;8.28;72.67;99428.56;1691498;84;21562;-64
2021/09/21 02:56:54;;;;;;;3.58;2.08;;;;;;;8.43;72.55;99434.19;1691199;84;21455;-64
2021/09/21 02:59:21;;;;;;;3.42;1.75;;;;;;;8.44;72.27;99430.64;1689213;84;21598;-63
2021/09/21 03:01:48;;;;;;;1.80;1.70;;;;;;;8.45;72.21;99429.27;1679293;84;21523;-64
2021/09/21 03:04:28;;;;;;;2.58;1.75;;;;;;;8.42;72.08;99433.34;1677165;84;21459;-63
2021/09/21 03:07:02;;;;;;;2.10;1.90;;;;;;;8.42;71.99;99429.41;1662948;84;21527;-64
2021/09/21 03:09:37;;;;;;;1.85;1.75;;;;;;;8.34;72.63;99440.58;1662055;85;21531;-64
2021/09/21 03:11:59;;;;;;;1.75;1.60;;;;;;;8.38;72.93;99440.42;1661015;84;21589;-64
2021/09/21 03:19:34;;;;;;;2.58;1.60;;;;;;;8.20;72.53;99443.71;1644933;85;21477;-65
2021/09/21 03:22:02;;;;;;;2.27;1.80;;;;;;;8.26;72.79;99437.39;1686493;84;21475;-64
2021/09/21 03:24:30;;;;;;;2.05;1.77;;;;;;;8.33;72.29;99441.51;1663443;85;21569;-64
2021/09/21 03:26:59;;;;;;;2.60;1.77;;;;;;;8.27;72.32;99443.02;1663116;85;21784;-64
2021/09/21 03:29:26;;;;;;;1.25;1.25;;;;;;;8.24;72.21;99441.38;1663176;85;21473;-64
2021/09/21 03:31:55;;;;;;;1.65;1.55;;;;;;;8.22;71.51;99438.42;1663064;85;21010;-64
2021/09/21 03:34:23;;;;;;;1.65;1.47;;;;;;;8.15;71.30;99437.31;1665032;84;21522;-64
2021/09/21 03:36:51;;;;;;;1.90;1.40;;;;;;;8.16;71.72;99444.73;1659707;84;21561;-64
2021/09/21 03:39:17;;;;;;;1.40;1.30;;;;;;;8.24;71.19;99445.77;1658051;86;21835;-64
2021/09/21 03:41:44;;;;;;;1.60;1.45;;;;;;;8.26;71.17;99438.70;1658059;84;20994;-64
2021/09/21 03:44:11;;;;;;;2.27;1.32;;;;;;;8.19;71.10;99438.06;1674730;84;21062;-64
2021/09/21 03:46:38;;;;;;;2.95;1.60;;;;;;;8.16;71.05;99448.20;1685566;84;21547;-65
2021/09/21 03:49:05;;;;;;;1.60;1.50;;;;;;;8.18;70.70;99442.91;1679468;83;21516;-64
2021/09/21 03:51:32;;;;;;;1.87;1.47;;;;;;;8.15;70.89;99440.39;1682960;83;21813;-64
2021/09/21 03:53:58;;;;;;;1.52;1.00;;;;;;;8.15;71.18;99445.63;1684977;84;21003;-64
2021/09/21 03:56:25;;;;;;;2.35;1.40;;;;;;;8.21;71.20;99445.87;1686027;84;21447;-64
2021/09/21 03:58:52;;;;;;;1.63;1.53;;;;;;;8.24;71.05;99439.22;1685781;84;21547;-64
2021/09/21 04:01:19;;;;;;;1.47;1.32;;;;;;;8.25;70.55;99440.48;1685917;83;21512;-64
2021/09/21 04:03:46;;;;;;;1.55;1.35;;;;;;;8.17;70.27;99432.91;1670855;84;21672;-63
2021/09/21 04:06:14;;;;;;;1.47;1.37;;;;;;;8.09;70.64;99434.92;1685873;83;21479;-63
2021/09/21 04:08:40;;;;;;;2.12;1.70;;;;;;;8.08;71.08;99435.85;1685666;84;21478;-64
2021/09/21 04:11:07;;;;;;;2.57;1.70;;;;;;;8.23;70.76;99436.19;1685696;84;20994;-63
2021/09/21 04:13:35;;;;;;;2.67;1.30;;;;;;;8.16;70.77;99432.95;1685952;84;26918;-67
2021/09/21 04:16:02;;;;;;;1.43;1.20;;;;;;;8.13;70.98;99439.60;1679965;84;21810;-64
2021/09/21 04:18:29;;;;;;;2.15;1.80;;;;;;;8.09;71.18;99447.17;1684986;83;21554;-65
2021/09/21 04:20:57;;;;;;;1.57;1.40;;;;;;;8.06;71.17;99445.95;1658088;84;21501;-64
2021/09/21 04:23:25;;;;;;;1.35;1.25;;;;;;;8.03;71.50;99452.63;1630196;86;21487;-64
2021/09/21 04:25:54;;;;;;;2.20;1.27;;;;;;;8.13;71.61;99449.61;1666216;84;21551;-64
2021/09/21 04:28:20;;;;;;;3.50;2.08;;;;;;;8.21;71.08;99442.78;1685868;83;21609;-65
2021/09/21 04:30:51;;;;;;;1.87;1.45;;;;;;;8.13;70.79;99446.15;1675344;84;21472;-65
2021/09/21 04:33:18;;;;;;;1.70;1.60;;;;;;;8.03;71.16;99444.31;1661036;84;21471;-66
2021/09/21 04:35:45;;;;;;;2.35;1.42;;;;;;;8.02;71.27;99450.91;1657974;85;21451;-65
2021/09/21 04:38:12;;;;;;;1.72;1.40;;;;;;;7.98;71.42;99442.30;1658009;86;21495;-65
2021/09/21 04:40:39;;;;;;;1.42;1.32;;;;;;;8.16;70.98;99438.19;1657902;86;22116;-65
2021/09/21 04:43:06;;;;;;;3.67;1.50;;;;;;;8.11;71.01;99447.50;1680135;84;21611;-65
2021/09/21 04:45:36;;;;;;;1.65;1.32;;;;;;;8.11;70.80;99440.95;1685739;84;21606;-66
2021/09/21 04:48:05;;;;;;;1.27;1.20;;;;;;;8.02;70.80;99441.75;1685935;83;21539;-66
2021/09/21 04:50:31;;;;;;;1.52;1.42;;;;;;;7.96;71.07;99447.59;1685742;84;21519;-66
2021/09/21 04:52:58;;;;;;;1.37;1.27;;;;;;;7.88;71.33;99442.25;1684040;84;21792;-66
2021/09/21 04:55:25;;;;;;;2.00;1.40;;;;;;;7.95;71.75;99443.28;1685564;84;21039;-67
2021/09/21 04:57:52;;;;;;;1.65;1.25;;;;;;;7.98;71.49;99441.00;1685756;84;21550;-67
2021/09/21 05:00:18;;;;;;;1.60;1.50;;;;;;;8.02;71.79;99444.36;1668084;84;20986;-65
2021/09/21 05:02:45;;;;;;;4.50;1.52;;;;;;;8.09;71.82;99448.48;1685178;83;21500;-64
2021/09/21 05:05:12;;;;;;;1.30;1.20;;;;;;;8.12;71.26;99437.44;1685541;84;22068;-64
2021/09/21 05:07:41;;;;;;;4.40;1.52;;;;;;;8.06;71.54;99436.36;1685836;84;21444;-64
2021/09/21 05:10:10;;;;;;;5.17;1.35;;;;;;;8.13;71.74;99435.67;1686005;84;21595;-65
2021/09/21 05:12:38;;;;;;;1.05;0.98;;;;;;;8.26;71.32;99438.70;1666043;84;21586;-66
2021/09/21 05:15:06;;;;;;;1.17;1.07;;;;;;;8.26;71.20;99438.70;1656953;86;21606;-68
2021/09/21 05:17:35;;;;;;;2.02;1.40;;;;;;;8.29;70.91;99442.53;1657994;86;21014;-64
2021/09/21 05:20:03;;;;;;;0.85;0.82;;;;;;;8.32;70.86;99439.78;1658098;84;21538;-67
2021/09/21 05:22:32;;;;;;;1.90;0.93;;;;;;;8.30;70.29;99441.14;1671690;84;21495;-69
2021/09/21 05:24:58;;;;;;;4.05;0.90;;;;;;;8.21;70.30;99442.78;1686092;84;20978;-68
2021/09/21 05:27:25;;;;;;;1.40;1.30;;;;;;;8.25;70.47;99436.98;1669829;83;21499;-67
2021/09/21 05:29:52;;;;;;;4.80;1.32;;;;;;;8.35;70.87;99438.38;1658328;86;22111;-69
2021/09/21 05:32:20;;;;;;;1.82;1.02;;;;;;;8.46;70.36;99438.86;1670290;84;21604;-65
2021/09/21 05:34:48;;;;;;;2.00;0.98;;;;;;;8.42;70.34;99437.27;1671808;84;21479;-65
2021/09/21 05:37:15;;;;;;;1.75;0.78;;;;;;;8.42;69.90;99438.58;1676252;84;21479;-66
2021/09/21 05:39:42;;;;;;;1.17;1.02;;;;;;;8.35;70.01;99435.28;1669501;83;21041;-69
2021/09/21 05:42:09;;;;;;;3.52;1.00;;;;;;;8.33;69.79;99442.81;1685350;84;21764;-66
2021/09/21 05:44:36;;;;;;;1.57;0.78;;;;;;;8.28;69.48;99439.50;1685520;83;21636;-69
2021/09/21 05:47:03;;;;;;;2.55;1.15;;;;;;;8.34;69.70;99441.45;1683996;83;21558;-67
2021/09/21 05:49:29;;;;;;;0.80;0.80;;;;;;;8.36;69.74;99440.06;1686031;84;21472;-67
2021/09/21 05:51:57;;;;;;;0.70;0.70;;;;;;;8.36;69.78;99437.44;1686150;83;21026;-69
2021/09/21 05:54:24;;;;;;;0.93;0.88;;;;;;;8.36;69.31;99440.06;1686108;84;22129;-67
2021/09/21 05:56:51;;;;;;;1.63;0.63;;;;;;;8.32;69.48;99443.71;1686212;84;21423;-66
2021/09/21 05:59:18;;;;;;;0.78;0.78;;;;;;;8.26;69.66;99442.64;1668818;84;21700;-66
2021/09/21 06:01:47;;;;;;;1.07;0.98;;;;;;;8.33;70.12;99438.89;1683976;84;21471;-66
2021/09/21 06:04:14;;;;;;;0.78;0.78;;;;;;;8.44;69.22;99440.69;1686066;83;21034;-67
2021/09/21 06:06:41;;;;;;;2.72;1.00;;;;;;;8.39;69.18;99439.95;1686128;83;22009;-67
2021/09/21 06:09:08;;;;;;;1.45;0.90;;;;;;;8.36;69.29;99442.68;1680685;83;21558;-66
2021/09/21 06:11:35;;;;;;;1.05;0.80;;;;;;;8.36;69.40;99437.02;1669554;84;21511;-68
2021/09/21 06:14:02;;;;;;;0.93;0.90;;;;;;;8.31;69.27;99441.55;1658819;84;21567;-69
2021/09/21 06:16:31;;;;;;;1.05;0.93;;;;;;;8.26;69.37;99443.95;1679793;83;21563;-65
2021/09/21 06:19:00;;;;;;;0.95;0.78;;;;;;;8.32;69.66;99448.48;1682685;84;22044;-67
2021/09/21 06:21:26;;;;;;;2.35;0.80;;;;;;;8.46;69.90;99446.72;1685854;83;21488;-66
2021/09/21 06:23:55;;;;;;;2.08;0.78;;;;;;;8.54;69.82;99443.81;1679180;84;21007;-67
2021/09/21 06:26:21;;;;;;;1.37;0.90;;;;;;;8.57;69.83;99439.31;1661435;84;21534;-66
2021/09/21 06:28:48;;;;;;;2.10;0.98;;;;;;;8.63;69.51;99448.70;1673700;84;21470;-68
2021/09/21 06:31:15;;;;;;;0.67;0.67;;;;;;;8.63;68.34;99449.17;1681178;84;21797;-67
2021/09/21 06:33:44;;;;;;;0.80;0.80;;;;;;;8.49;68.24;99441.34;1666517;84;21744;-66
2021/09/21 06:36:13;;;;;;;0.88;0.88;;;;;;;8.40;68.33;99444.30;1657980;84;21551;-66
2021/09/21 06:38:41;;;;;;;0.88;0.88;;;;;;;8.38;69.17;99437.80;1633409;84;21621;-64
2021/09/21 06:41:08;;;;;;;1.25;1.15;;;;;;;8.50;69.19;99445.69;1669783;83;21459;-65
2021/09/21 06:43:35;;;;;;;1.17;1.00;;;;;;;8.53;68.58;99444.70;1670365;83;21606;-64
2021/09/21 06:46:02;;;;;;;1.07;0.88;;;;;;;8.44;68.94;99445.05;1666097;84;21638;-62
2021/09/21 06:48:29;;;;;;;0.82;0.82;;;;;;;8.45;69.19;99444.16;1672471;84;21554;-63
2021/09/21 06:50:56;;;;;;;1.92;1.00;;;;;;;8.48;68.58;99453.22;1667134;84;21625;-63
2021/09/21 06:53:23;;;;;;;0.70;0.70;;;;;;;8.37;69.07;99451.80;1670428;84;21760;-66
2021/09/21 06:55:50;;;;;;;0.70;0.70;;;;;;;8.36;69.44;99447.92;1670668;84;21694;-64
2021/09/21 06:58:17;;;;;;;1.17;1.00;;;;;;;8.52;69.47;99455.66;1668164;84;21562;-64
2021/09/21 07:00:46;;;;;;;1.10;0.93;;;;;;;8.55;68.97;99462.10;1661883;84;21089;-64
2021/09/21 07:03:13;;;;;;;1.60;1.05;;;;;;;8.51;68.92;99459.64;1670558;83;21511;-65
2021/09/21 07:05:39;;;;;;;1.15;0.70;;;;;;;8.50;68.91;99460.10;1670123;84;20990;-64
2021/09/21 07:08:06;;;;;;;0.80;0.70;;;;;;;8.49;68.80;99464.92;1670559;84;22062;-63
2021/09/21 07:10:35;;;;;;;1.20;1.10;;;;;;;8.52;68.86;99472.69;1671683;84;21527;-63
2021/09/21 07:13:01;;;;;;;0.82;0.80;;;;;;;8.56;68.85;99473.43;1671050;84;21510;-62
2021/09/21 07:15:28;;;;;;;2.87;0.93;;;;;;;8.66;68.87;99473.47;1671071;84;21098;-67
2021/09/21 07:17:55;;;;;;;1.05;0.85;;;;;;;8.85;67.88;99472.78;1665219;84;21455;-65
2021/09/21 07:20:25;;;;;;;1.12;1.02;;;;;;;8.77;67.99;99474.38;1680220;84;21885;-67
2021/09/21 07:22:54;;;;;;;1.05;1.00;;;;;;;8.69;67.91;99469.90;1659421;84;21042;-66
2021/09/21 07:25:21;;;;;;;4.05;1.32;;;;;;;8.67;68.15;99476.97;1657923;86;21545;-66
2021/09/21 07:27:48;;;;;;;1.30;1.20;;;;;;;8.67;67.84;99475.66;1657023;86;21605;-68
2021/09/21 07:30:17;;;;;;;1.82;1.00;;;;;;;8.57;67.67;99476.00;1657924;84;21531;-71
2021/09/21 07:32:45;;;;;;;1.22;1.10;;;;;;;8.47;67.92;99482.47;1657962;86;21671;-63
2021/09/21 07:35:12;;;;;;;1.75;0.90;;;;;;;8.58;67.95;99481.63;1712476;82;21538;-65
2021/09/21 07:37:39;;;;;;;5.40;1.12;;;;;;;8.57;68.00;99471.22;1727591;82;21097;-72
2021/09/21 07:40:09;;;;;;;0.98;0.88;;;;;;;8.61;68.29;99482.41;1704763;83;21463;-68
2021/09/21 07:42:35;;;;;;;1.52;0.72;;;;;;;8.62;68.46;99484.98;1704206;82;21467;-69
2021/09/21 07:45:05;;;;;;;0.80;0.80;;;;;;;8.64;68.11;99477.08;1704614;83;21788;-67
2021/09/21 07:47:32;;;;;;;0.98;0.88;;;;;;;8.61;67.94;99478.48;1704129;83;21563;-68
2021/09/21 07:49:59;;;;;;;0.62;0.62;;;;;;;8.62;68.15;99479.74;1704400;82;21463;-68
2021/09/21 07:52:28;;;;;;;0.78;0.75;;;;;;;8.70;68.00;99484.27;1704443;83;21504;-67
2021/09/21 07:54:57;;;;;;;0.70;0.60;;;;;;;8.83;67.54;99485.09;1690025;80;23324;-67
2021/09/21 07:57:24;;;;;;;4.40;0.80;;;;;;;8.85;67.42;99484.11;1673324;84;22175;-68
2021/09/21 07:59:51;;;;;;;1.40;1.12;;;;;;;8.86;67.37;99481.90;1666115;83;21725;-67
2021/09/21 08:02:18;;;;;;;1.23;1.13;;;;;;;8.80;67.25;99488.70;1687344;83;21497;-67
2021/09/21 08:04:46;;;;;;;1.30;1.20;;;;;;;8.79;67.52;99485.66;1713143;83;20970;-68
2021/09/21 08:07:14;;;;;;;1.20;1.00;;;;;;;8.81;67.33;99492.16;1702809;83;21504;-68
2021/09/21 08:09:45;;;;;;;1.30;1.20;;;;;;;8.71;66.90;99483.34;1693737;84;21513;-70
2021/09/21 08:12:13;;;;;;;1.30;0.80;;;;;;;8.65;67.11;99482.27;1686258;84;21578;-68
2021/09/21 08:14:40;;;;;;;0.60;0.60;;;;;;;8.72;67.55;99488.11;1687325;83;21448;-68
2021/09/21 08:17:07;;;;;;;0.95;0.85;;;;;;;8.80;67.27;99484.77;1693977;84;21468;-67
2021/09/21 08:19:34;;;;;;;0.90;0.90;;;;;;;8.73;67.15;99484.13;1716865;82;21398;-67
2021/09/21 08:22:01;;;;;;;0.55;0.55;;;;;;;8.72;67.06;99486.80;1738538;82;21386;-66
2021/09/21 08:24:30;;;;;;;0.98;0.80;;;;;;;8.68;67.15;99482.59;1738341;82;21383;-66
2021/09/21 08:26:56;;;;;;;0.90;0.90;;;;;;;8.70;67.24;99493.44;1738356;82;21525;-67
2021/09/21 08:29:23;;;;;;;1.63;1.00;;;;;;;8.68;67.22;99482.59;1737790;82;21626;-68
2021/09/21 08:31:52;;;;;;;0.60;0.60;;;;;;;8.71;67.03;99486.42;1738370;82;21515;-68
2021/09/21 08:34:19;;;;;;;1.62;1.17;;;;;;;8.77;66.90;99479.16;1729249;81;21648;-68
2021/09/21 08:36:49;;;;;;;0.80;0.80;;;;;;;8.77;66.87;99483.56;1732068;81;21022;-73
2021/09/21 08:39:15;;;;;;;0.75;0.75;;;;;;;8.68;66.98;99479.53;1731832;82;21464;-70
2021/09/21 08:41:43;;;;;;;;;;;;;;;8.65;67.18;99486.19;1738899;82;21048;-71
2021/09/21 08:44:10;;;;;;;0.90;0.90;;;;;;;8.66;67.32;99483.11;1730499;82;20451;-67
2021/09/21 08:46:37;;;;;;;0.85;0.82;;;;;;;8.58;66.85;99480.31;1730250;81;25731;-66
2021/09/21 08:51:13;;;;;;;1.60;0.62;;;;;;;8.64;67.23;99478.38;1768476;79;22750;-67
2021/09/21 08:53:39;;;;;;;3.22;0.68;;;;;;;8.67;67.38;99480.44;1724882;81;21514;-66
2021/09/21 08:56:07;;;;;;;0.72;0.72;;;;;;;8.77;66.92;99480.47;1747614;80;21815;-67
2021/09/21 08:58:34;;;;;;;2.25;0.93;;;;;;;8.76;66.45;99484.02;1737685;80;21531;-67
2021/09/21 09:01:13;;;;;;;0.70;0.62;;;;;;;8.79;66.37;99484.81;1718015;81;21471;-67
2021/09/21 09:03:39;;;;;;;1.55;0.90;;;;;;;8.72;66.33;99487.68;1718434;81;21519;-67
2021/09/21 09:06:07;;;;;;;0.93;0.65;;;;;;;8.74;66.07;99489.78;1717938;82;21435;-67
2021/09/21 09:08:38;;;;;;;0.88;0.68;;;;;;;8.70;66.31;99493.44;1717843;82;21447;-68
2021/09/21 09:11:24;;;;;;;0.88;0.80;;;;;;;8.70;66.40;99493.87;1731779;81;21426;-68
2021/09/21 09:13:57;;;;;;;1.52;0.70;;;;;;;8.74;67.03;99498.11;1718923;81;21487;-68
2021/09/21 09:16:27;;;;;;;1.15;0.70;;;;;;;8.87;66.97;99495.86;1733768;81;21432;-66
2021/09/21 09:19:06;;;;;;;1.62;0.90;;;;;;;8.96;67.20;99500.28;1742375;80;21467;-65
2021/09/21 09:21:37;;;;;;;0.60;0.55;;;;;;;9.02;66.90;99495.73;1746345;80;20922;-65
2021/09/21 09:24:06;;;;;;;0.75;0.75;;;;;;;9.04;66.50;99503.95;1747624;80;21416;-65
2021/09/21 09:26:41;;;;;;;0.78;0.78;;;;;;;9.06;66.41;99511.73;1747647;80;21455;-66
2021/09/21 09:29:10;;;;;;;0.80;0.65;;;;;;;9.04;66.41;99507.01;1747605;80;21419;-68
2021/09/21 09:31:38;;;;;;;1.40;0.78;;;;;;;9.03;66.46;99511.88;1747917;80;21435;-66
2021/09/21 09:34:11;;;;;;;;;;;;;;;9.02;66.38;99512.30;1750499;80;21415;-67
2021/09/21 09:36:53;;;;;;;0.70;0.70;;;;;;;8.94;66.42;99508.67;1746419;80;20532;-69
2021/09/21 09:39:23;;;;;;;1.17;0.75;;;;;;;8.93;66.85;99504.36;1747377;80;21491;-68
2021/09/21 09:41:53;;;;;;;0.75;0.70;;;;;;;9.04;66.10;99507.89;1733203;80;21471;-67
2021/09/21 09:44:23;;;;;;;0.68;0.68;;;;;;;9.04;66.33;99509.20;1714653;82;21551;-67
2021/09/21 09:47:00;;;;;;;1.27;0.60;;;;;;;9.03;66.33;99508.78;1698803;82;21749;-72
2021/09/21 09:49:34;;;;;;;0.98;0.78;;;;;;;9.01;66.24;99506.68;1681214;83;21523;-68
2021/09/21 09:52:11;;;;;;;0.80;0.80;;;;;;;9.04;66.12;99505.70;1721429;81;21545;-67
2021/09/21 09:54:40;;;;;;;3.60;1.15;;;;;;;9.00;66.36;99508.89;1723819;81;22484;-69
2021/09/21 09:57:08;;;;;;;0.82;0.70;;;;;;;8.94;66.20;99508.67;1724891;81;21620;-68
2021/09/21 09:59:35;;;;;;;;;;;;;;;8.92;66.42;99510.50;1725605;81;21710;-63
2021/09/21 10:02:03;;;;;;;1.00;0.90;;;;;;;8.92;66.45;99505.72;1723812;80;20180;-68
2021/09/21 10:04:30;;;;;;;0.82;0.60;;;;;;;8.94;66.22;99506.52;1739415;80;20994;-75
2021/09/21 10:06:57;;;;;;;0.80;0.80;;;;;;;8.94;66.45;99509.14;1712304;82;21422;-72
2021/09/21 10:09:24;;;;;;;3.87;1.00;;;;;;;8.96;66.59;99512.55;1712593;82;21408;-71
2021/09/21 10:11:55;;;;;;;1.35;0.80;;;;;;;8.92;66.76;99514.90;1713221;82;21851;-70
2021/09/21 10:14:23;;;;;;;0.72;0.72;;;;;;;8.84;67.10;99515.66;1711919;82;21537;-72
2021/09/21 10:17:01;;;;;;;2.67;0.78;;;;;;;8.87;67.30;99517.70;1712229;82;21471;-71
2021/09/21 10:19:28;;;;;;;;;;;;;;;8.85;67.41;99512.95;1729220;81;21428;-72
2021/09/21 10:21:55;;;;;;;0.98;0.98;;;;;;;8.92;67.60;99511.81;1738485;80;20470;-69
2021/09/21 10:24:37;;;;;;;2.43;0.67;;;;;;;8.98;67.54;99513.81;1746373;79;22085;-69
2021/09/21 10:27:12;;;;;;;0.90;0.90;;;;;;;9.02;67.49;99522.80;1736099;81;21562;-74
2021/09/21 10:29:41;;;;;;;0.72;0.70;;;;;;;9.00;67.20;99524.62;1739312;81;21435;-73
2021/09/21 10:32:15;;;;;;;1.40;0.85;;;;;;;9.08;66.76;99524.33;1736002;82;21447;-71
2021/09/21 10:34:48;;;;;;;1.67;0.80;;;;;;;8.99;66.59;99516.84;1735932;80;20978;-73
2021/09/21 10:37:20;;;;;;;1.42;0.80;;;;;;;8.91;66.78;99519.30;1735737;81;21755;-71
2021/09/21 10:39:46;;;;;;;1.12;0.72;;;;;;;8.94;67.17;99511.30;1735835;82;21404;-74
2021/09/21 10:42:16;;;;;;;0.85;0.80;;;;;;;9.07;67.68;99517.39;1738458;80;21408;-71
2021/09/21 10:44:51;;;;;;;1.37;0.80;;;;;;;9.20;66.55;99520.41;1736136;80;20985;-73
2021/09/21 10:47:39;;;;;;;0.57;0.57;;;;;;;9.26;65.86;99521.00;1712149;82;21431;-72
2021/09/21 10:50:14;;;;;;;0.70;0.70;;;;;;;9.21;65.90;99522.97;1713553;81;21543;-72
2021/09/21 10:52:42;;;;;;;0.80;0.50;;;;;;;9.22;65.83;99523.34;1717408;82;21400;-69
2021/09/21 10:55:12;;;;;;;0.82;0.60;;;;;;;9.24;65.20;99525.92;1733901;80;21514;-73
2021/09/21 10:57:44;;;;;;;0.80;0.80;;;;;;;9.22;65.05;99525.12;1748901;80;21562;-72
2021/09/21 11:00:14;;;;;;;1.02;0.70;;;;;;;9.19;65.19;99522.61;1751448;80;21499;-73
2021/09/21 11:02:44;;;;;;;0.70;0.70;;;;;;;9.23;65.12;99532.06;1729301;80;20987;-72
2021/09/21 11:05:16;;;;;;;0.60;0.60;;;;;;;9.20;64.77;99525.64;1735693;82;21465;-70
2021/09/21 11:08:00;;;;;;;1.00;0.90;;;;;;;9.09;65.09;99532.61;1741082;82;21404;-66
2021/09/21 11:10:32;;;;;;;0.47;0.40;;;;;;;9.11;65.70;99526.38;1746206;80;21456;-70
2021/09/21 11:12:59;;;;;;;0.90;0.60;;;;;;;9.27;65.68;99543.70;1725843;81;21802;-70
2021/09/21 11:15:28;;;;;;;0.55;0.55;;;;;;;9.20;64.67;99531.73;1717500;81;21819;-73
2021/09/21 11:18:10;;;;;;;0.68;0.57;;;;;;;9.22;64.77;99540.86;1717281;81;21428;-70
2021/09/21 11:20:57;;;;;;;0.50;0.50;;;;;;;9.14;64.45;99530.67;1717166;82;21570;-72
2021/09/21 11:23:35;;;;;;;1.77;0.60;;;;;;;9.10;65.00;99534.33;1724800;81;20943;-71
2021/09/21 11:26:05;;;;;;;0.50;0.50;;;;;;;9.09;64.83;99533.45;1733011;81;21489;-71
2021/09/21 11:28:34;;;;;;;0.80;0.60;;;;;;;9.08;65.32;99536.13;1745944;81;21783;-69
2021/09/21 11:31:02;;;;;;;5.47;0.70;;;;;;;9.08;64.67;99536.13;1737821;81;21499;-69
2021/09/21 11:33:32;;;;;;;0.65;0.65;;;;;;;9.04;65.18;99540.67;1729695;80;21557;-61
2021/09/21 11:36:06;;;;;;;0.80;0.57;;;;;;;9.11;66.11;99553.92;1734833;80;21537;-67
2021/09/21 11:38:35;;;;;;;0.60;0.60;;;;;;;9.26;65.39;99548.55;1746225;80;21538;-68
2021/09/21 11:41:03;;;;;;;0.62;0.62;;;;;;;9.32;65.39;99548.77;1753152;80;21740;-72
2021/09/21 11:43:29;;;;;;;0.70;0.70;;;;;;;9.33;65.11;99547.39;1747611;80;21534;-70
2021/09/21 11:45:57;;;;;;;2.17;0.78;;;;;;;9.33;64.54;99541.30;1747770;80;21448;-70
2021/09/21 11:48:24;;;;;;;0.85;0.60;;;;;;;9.29;64.56;99544.50;1748091;80;21427;-70
2021/09/21 11:50:51;;;;;;;1.30;0.57;;;;;;;9.24;64.55;99548.22;1709823;82;20927;-68
2021/09/21 11:53:21;;;;;;;0.50;0.50;;;;;;;9.26;64.82;99555.10;1726168;82;21805;-68
2021/09/21 11:55:51;;;;;;;0.57;0.47;;;;;;;9.28;64.70;99545.40;1729882;81;20947;-70
2021/09/21 11:58:18;;;;;;;1.42;0.68;;;;;;;9.38;64.36;99549.86;1734011;81;21413;-70
2021/09/21 12:00:49;;;;;;;0.70;0.65;;;;;;;9.35;64.55;99550.81;1734295;81;21459;-69
2021/09/21 12:03:19;;;;;;;1.12;0.60;;;;;;;9.37;64.50;99553.84;1734244;81;21488;-68